ΕΜΥ, Εθνική Μετεωρολογική Υπηρεσία - Δελτία Καιρού, Προγνώσεις

ΑΕΡΟΝΑΥΤΙΛΙΑ

GREEK AIRPORTS CODES

TAF LGMG 221000Z 2212/2221 30008G18KT 9999 SCT040 BECMG 2215/2217 30008KT=

EUROPEAN AIRPORTS CODES

LFPO 221500Z 26004KT 220V310 CAVOK 22/06 Q1020 NOSIG=